sensor_id;sensor_type;location;lat;lon;timestamp;P1;durP1;ratioP1;P2;durP2;ratioP2
52188;SDS011;38162;45.926;13.608;2023-05-20T00:00:32;7.43;;;6.03;;
52188;SDS011;38162;45.926;13.608;2023-05-20T00:02:58;8.35;;;5.75;;
52188;SDS011;38162;45.926;13.608;2023-05-20T00:05:24;6.85;;;5.63;;
52188;SDS011;38162;45.926;13.608;2023-05-20T00:07:50;7.90;;;5.75;;
52188;SDS011;38162;45.926;13.608;2023-05-20T00:10:16;6.47;;;4.72;;
52188;SDS011;38162;45.926;13.608;2023-05-20T00:12:42;6.72;;;4.40;;
52188;SDS011;38162;45.926;13.608;2023-05-20T00:15:08;5.57;;;3.88;;
52188;SDS011;38162;45.926;13.608;2023-05-20T00:17:36;4.35;;;3.45;;
52188;SDS011;38162;45.926;13.608;2023-05-20T00:20:02;4.65;;;3.28;;
52188;SDS011;38162;45.926;13.608;2023-05-20T00:22:29;4.85;;;3.20;;
52188;SDS011;38162;45.926;13.608;2023-05-20T00:24:55;3.63;;;3.15;;
52188;SDS011;38162;45.926;13.608;2023-05-20T00:27:21;3.67;;;3.25;;
52188;SDS011;38162;45.926;13.608;2023-05-20T00:29:46;3.92;;;3.50;;
52188;SDS011;38162;45.926;13.608;2023-05-20T00:32:12;3.63;;;3.22;;
52188;SDS011;38162;45.926;13.608;2023-05-20T00:34:38;4.43;;;3.30;;
52188;SDS011;38162;45.926;13.608;2023-05-20T00:37:04;5.32;;;3.45;;
52188;SDS011;38162;45.926;13.608;2023-05-20T00:39:30;5.18;;;3.30;;
52188;SDS011;38162;45.926;13.608;2023-05-20T00:41:56;3.60;;;3.30;;
52188;SDS011;38162;45.926;13.608;2023-05-20T00:44:25;5.20;;;3.38;;
52188;SDS011;38162;45.926;13.608;2023-05-20T00:46:51;4.63;;;3.80;;
52188;SDS011;38162;45.926;13.608;2023-05-20T00:49:18;6.13;;;3.53;;
52188;SDS011;38162;45.926;13.608;2023-05-20T00:51:44;4.57;;;3.72;;
52188;SDS011;38162;45.926;13.608;2023-05-20T00:54:10;5.70;;;4.03;;
52188;SDS011;38162;45.926;13.608;2023-05-20T00:56:36;5.88;;;3.63;;
52188;SDS011;38162;45.926;13.608;2023-05-20T00:59:02;5.25;;;4.22;;
52188;SDS011;38162;45.926;13.608;2023-05-20T01:01:29;5.78;;;3.80;;
52188;SDS011;38162;45.926;13.608;2023-05-20T01:03:55;4.53;;;3.45;;
52188;SDS011;38162;45.926;13.608;2023-05-20T01:06:20;6.40;;;3.85;;
52188;SDS011;38162;45.926;13.608;2023-05-20T01:08:46;5.82;;;4.50;;
52188;SDS011;38162;45.926;13.608;2023-05-20T01:11:24;4.53;;;3.80;;
52188;SDS011;38162;45.926;13.608;2023-05-20T01:13:54;5.25;;;4.10;;
52188;SDS011;38162;45.926;13.608;2023-05-20T01:16:30;7.57;;;3.70;;
52188;SDS011;38162;45.926;13.608;2023-05-20T01:18:58;4.20;;;3.30;;
52188;SDS011;38162;45.926;13.608;2023-05-20T01:21:26;4.70;;;3.58;;
52188;SDS011;38162;45.926;13.608;2023-05-20T01:23:54;5.05;;;3.78;;
52188;SDS011;38162;45.926;13.608;2023-05-20T01:26:20;6.78;;;3.90;;
52188;SDS011;38162;45.926;13.608;2023-05-20T01:28:50;5.72;;;3.63;;
52188;SDS011;38162;45.926;13.608;2023-05-20T01:31:17;6.28;;;3.92;;
52188;SDS011;38162;45.926;13.608;2023-05-20T01:33:48;4.10;;;3.70;;
52188;SDS011;38162;45.926;13.608;2023-05-20T01:36:18;5.57;;;4.13;;
52188;SDS011;38162;45.926;13.608;2023-05-20T01:38:45;4.20;;;3.80;;
52188;SDS011;38162;45.926;13.608;2023-05-20T01:41:12;6.03;;;4.22;;
52188;SDS011;38162;45.926;13.608;2023-05-20T01:43:38;4.78;;;3.70;;
52188;SDS011;38162;45.926;13.608;2023-05-20T01:46:05;4.60;;;4.07;;
52188;SDS011;38162;45.926;13.608;2023-05-20T01:48:31;5.03;;;3.65;;
52188;SDS011;38162;45.926;13.608;2023-05-20T01:50:57;4.88;;;3.72;;
52188;SDS011;38162;45.926;13.608;2023-05-20T01:53:22;5.35;;;3.63;;
52188;SDS011;38162;45.926;13.608;2023-05-20T01:55:48;6.03;;;3.67;;
52188;SDS011;38162;45.926;13.608;2023-05-20T01:58:14;6.78;;;3.92;;
52188;SDS011;38162;45.926;13.608;2023-05-20T02:00:39;3.85;;;3.45;;
52188;SDS011;38162;45.926;13.608;2023-05-20T02:03:05;5.53;;;4.32;;
52188;SDS011;38162;45.926;13.608;2023-05-20T02:05:31;8.50;;;4.72;;
52188;SDS011;38162;45.926;13.608;2023-05-20T02:07:57;7.03;;;4.63;;
52188;SDS011;38162;45.926;13.608;2023-05-20T02:10:22;5.20;;;4.03;;
52188;SDS011;38162;45.926;13.608;2023-05-20T02:12:48;6.47;;;4.40;;
52188;SDS011;38162;45.926;13.608;2023-05-20T02:15:14;5.03;;;4.10;;
52188;SDS011;38162;45.926;13.608;2023-05-20T02:17:40;6.22;;;4.38;;
52188;SDS011;38162;45.926;13.608;2023-05-20T02:20:07;6.75;;;5.00;;
52188;SDS011;38162;45.926;13.608;2023-05-20T02:22:34;8.52;;;4.45;;
52188;SDS011;38162;45.926;13.608;2023-05-20T02:25:00;6.78;;;4.47;;
52188;SDS011;38162;45.926;13.608;2023-05-20T02:27:26;6.80;;;4.20;;
52188;SDS011;38162;45.926;13.608;2023-05-20T02:29:52;6.72;;;4.18;;
52188;SDS011;38162;45.926;13.608;2023-05-20T02:32:17;6.15;;;3.95;;
52188;SDS011;38162;45.926;13.608;2023-05-20T02:34:44;5.88;;;4.38;;
52188;SDS011;38162;45.926;13.608;2023-05-20T02:37:10;4.78;;;4.28;;
52188;SDS011;38162;45.926;13.608;2023-05-20T02:39:36;6.43;;;4.30;;
52188;SDS011;38162;45.926;13.608;2023-05-20T02:42:01;5.07;;;4.38;;
52188;SDS011;38162;45.926;13.608;2023-05-20T02:44:28;7.28;;;4.60;;
52188;SDS011;38162;45.926;13.608;2023-05-20T02:46:54;7.53;;;4.18;;
52188;SDS011;38162;45.926;13.608;2023-05-20T02:49:20;9.18;;;4.57;;
52188;SDS011;38162;45.926;13.608;2023-05-20T02:51:46;8.18;;;5.35;;
52188;SDS011;38162;45.926;13.608;2023-05-20T02:54:11;7.50;;;5.40;;
52188;SDS011;38162;45.926;13.608;2023-05-20T02:56:37;6.43;;;5.82;;
52188;SDS011;38162;45.926;13.608;2023-05-20T02:59:03;10.13;;;5.35;;
52188;SDS011;38162;45.926;13.608;2023-05-20T03:01:31;5.53;;;4.93;;
52188;SDS011;38162;45.926;13.608;2023-05-20T03:03:59;6.82;;;4.80;;
52188;SDS011;38162;45.926;13.608;2023-05-20T03:06:26;8.13;;;4.70;;
52188;SDS011;38162;45.926;13.608;2023-05-20T03:08:53;8.57;;;4.65;;
52188;SDS011;38162;45.926;13.608;2023-05-20T03:11:19;6.78;;;4.68;;
52188;SDS011;38162;45.926;13.608;2023-05-20T03:13:45;6.38;;;4.47;;
52188;SDS011;38162;45.926;13.608;2023-05-20T03:16:11;5.30;;;4.70;;
52188;SDS011;38162;45.926;13.608;2023-05-20T03:18:37;7.15;;;4.60;;
52188;SDS011;38162;45.926;13.608;2023-05-20T03:21:03;8.30;;;5.50;;
52188;SDS011;38162;45.926;13.608;2023-05-20T03:23:29;7.75;;;6.05;;
52188;SDS011;38162;45.926;13.608;2023-05-20T03:25:54;6.90;;;6.20;;
52188;SDS011;38162;45.926;13.608;2023-05-20T03:28:20;7.60;;;6.22;;
52188;SDS011;38162;45.926;13.608;2023-05-20T03:30:46;6.90;;;6.20;;
52188;SDS011;38162;45.926;13.608;2023-05-20T03:33:12;7.38;;;5.75;;
52188;SDS011;38162;45.926;13.608;2023-05-20T03:35:39;8.32;;;6.35;;
52188;SDS011;38162;45.926;13.608;2023-05-20T03:38:05;7.97;;;5.95;;
52188;SDS011;38162;45.926;13.608;2023-05-20T03:40:31;8.48;;;5.88;;
52188;SDS011;38162;45.926;13.608;2023-05-20T03:42:57;8.98;;;5.90;;
52188;SDS011;38162;45.926;13.608;2023-05-20T03:45:23;10.30;;;6.15;;
52188;SDS011;38162;45.926;13.608;2023-05-20T03:47:48;9.13;;;5.78;;
52188;SDS011;38162;45.926;13.608;2023-05-20T03:50:14;6.88;;;5.68;;
52188;SDS011;38162;45.926;13.608;2023-05-20T03:52:40;10.30;;;5.50;;
52188;SDS011;38162;45.926;13.608;2023-05-20T03:55:06;8.38;;;5.50;;
52188;SDS011;38162;45.926;13.608;2023-05-20T03:57:32;7.55;;;5.40;;
52188;SDS011;38162;45.926;13.608;2023-05-20T03:59:58;11.38;;;5.68;;
52188;SDS011;38162;45.926;13.608;2023-05-20T04:02:23;9.75;;;5.50;;
52188;SDS011;38162;45.926;13.608;2023-05-20T04:04:49;7.80;;;5.47;;
52188;SDS011;38162;45.926;13.608;2023-05-20T04:07:21;6.82;;;5.45;;
52188;SDS011;38162;45.926;13.608;2023-05-20T04:09:47;8.57;;;5.70;;
52188;SDS011;38162;45.926;13.608;2023-05-20T04:12:13;16.30;;;5.88;;
52188;SDS011;38162;45.926;13.608;2023-05-20T04:14:39;6.78;;;5.72;;
52188;SDS011;38162;45.926;13.608;2023-05-20T04:17:06;9.73;;;8.07;;
52188;SDS011;38162;45.926;13.608;2023-05-20T04:19:32;9.52;;;6.20;;
52188;SDS011;38162;45.926;13.608;2023-05-20T04:21:58;7.72;;;5.85;;
52188;SDS011;38162;45.926;13.608;2023-05-20T04:24:25;8.77;;;5.88;;
52188;SDS011;38162;45.926;13.608;2023-05-20T04:26:51;9.18;;;5.93;;
52188;SDS011;38162;45.926;13.608;2023-05-20T04:29:17;6.85;;;6.03;;
52188;SDS011;38162;45.926;13.608;2023-05-20T04:31:46;7.13;;;5.78;;
52188;SDS011;38162;45.926;13.608;2023-05-20T04:34:13;8.27;;;5.80;;
52188;SDS011;38162;45.926;13.608;2023-05-20T04:36:39;6.90;;;5.47;;
52188;SDS011;38162;45.926;13.608;2023-05-20T04:39:04;7.75;;;6.25;;
52188;SDS011;38162;45.926;13.608;2023-05-20T04:41:32;6.93;;;5.93;;
52188;SDS011;38162;45.926;13.608;2023-05-20T04:43:58;7.03;;;5.93;;
52188;SDS011;38162;45.926;13.608;2023-05-20T04:46:26;6.65;;;5.95;;
52188;SDS011;38162;45.926;13.608;2023-05-20T04:48:52;7.65;;;6.25;;
52188;SDS011;38162;45.926;13.608;2023-05-20T04:51:18;8.63;;;5.97;;
52188;SDS011;38162;45.926;13.608;2023-05-20T04:53:44;6.10;;;5.45;;
52188;SDS011;38162;45.926;13.608;2023-05-20T04:56:10;6.88;;;6.10;;
52188;SDS011;38162;45.926;13.608;2023-05-20T04:58:37;6.05;;;5.45;;
52188;SDS011;38162;45.926;13.608;2023-05-20T05:01:03;7.35;;;6.32;;
52188;SDS011;38162;45.926;13.608;2023-05-20T05:03:29;8.07;;;5.90;;
52188;SDS011;38162;45.926;13.608;2023-05-20T05:05:55;8.30;;;5.82;;
52188;SDS011;38162;45.926;13.608;2023-05-20T05:08:22;8.43;;;6.35;;
52188;SDS011;38162;45.926;13.608;2023-05-20T05:10:48;8.60;;;5.45;;
52188;SDS011;38162;45.926;13.608;2023-05-20T05:13:14;9.68;;;5.82;;
52188;SDS011;38162;45.926;13.608;2023-05-20T05:15:40;9.63;;;6.40;;
52188;SDS011;38162;45.926;13.608;2023-05-20T05:18:05;10.05;;;6.30;;
52188;SDS011;38162;45.926;13.608;2023-05-20T05:20:31;7.88;;;5.68;;
52188;SDS011;38162;45.926;13.608;2023-05-20T05:22:57;8.82;;;5.60;;
52188;SDS011;38162;45.926;13.608;2023-05-20T05:25:23;6.53;;;5.65;;
52188;SDS011;38162;45.926;13.608;2023-05-20T05:27:48;7.35;;;6.00;;
52188;SDS011;38162;45.926;13.608;2023-05-20T05:30:14;6.78;;;5.70;;
52188;SDS011;38162;45.926;13.608;2023-05-20T05:32:40;9.18;;;6.18;;
52188;SDS011;38162;45.926;13.608;2023-05-20T05:35:06;9.10;;;5.85;;
52188;SDS011;38162;45.926;13.608;2023-05-20T05:37:32;9.48;;;6.32;;
52188;SDS011;38162;45.926;13.608;2023-05-20T05:39:58;6.95;;;5.93;;
52188;SDS011;38162;45.926;13.608;2023-05-20T05:42:24;7.72;;;6.18;;
52188;SDS011;38162;45.926;13.608;2023-05-20T05:44:50;11.93;;;6.25;;
52188;SDS011;38162;45.926;13.608;2023-05-20T05:47:16;6.32;;;5.72;;
52188;SDS011;38162;45.926;13.608;2023-05-20T05:49:42;9.10;;;6.25;;
52188;SDS011;38162;45.926;13.608;2023-05-20T05:52:07;7.07;;;5.82;;
52188;SDS011;38162;45.926;13.608;2023-05-20T05:54:33;8.20;;;6.60;;
52188;SDS011;38162;45.926;13.608;2023-05-20T05:56:59;12.20;;;6.97;;
52188;SDS011;38162;45.926;13.608;2023-05-20T05:59:25;7.95;;;6.97;;
52188;SDS011;38162;45.926;13.608;2023-05-20T06:01:51;8.68;;;6.72;;
52188;SDS011;38162;45.926;13.608;2023-05-20T06:04:16;11.35;;;6.03;;
52188;SDS011;38162;45.926;13.608;2023-05-20T06:06:42;9.77;;;6.75;;
52188;SDS011;38162;45.926;13.608;2023-05-20T06:09:08;10.07;;;6.95;;
52188;SDS011;38162;45.926;13.608;2023-05-20T06:11:33;11.43;;;7.53;;
52188;SDS011;38162;45.926;13.608;2023-05-20T06:14:00;7.82;;;7.00;;
52188;SDS011;38162;45.926;13.608;2023-05-20T06:16:26;10.35;;;6.97;;
52188;SDS011;38162;45.926;13.608;2023-05-20T06:18:51;17.13;;;7.88;;
52188;SDS011;38162;45.926;13.608;2023-05-20T06:21:21;12.07;;;8.80;;
52188;SDS011;38162;45.926;13.608;2023-05-20T06:23:47;13.25;;;9.02;;
52188;SDS011;38162;45.926;13.608;2023-05-20T06:26:12;10.63;;;8.55;;
52188;SDS011;38162;45.926;13.608;2023-05-20T06:28:38;13.50;;;9.07;;
52188;SDS011;38162;45.926;13.608;2023-05-20T06:31:04;11.73;;;8.93;;
52188;SDS011;38162;45.926;13.608;2023-05-20T06:33:30;12.85;;;8.80;;
52188;SDS011;38162;45.926;13.608;2023-05-20T06:35:57;11.32;;;9.80;;
52188;SDS011;38162;45.926;13.608;2023-05-20T06:38:23;20.45;;;10.65;;
52188;SDS011;38162;45.926;13.608;2023-05-20T06:40:49;11.85;;;10.65;;
52188;SDS011;38162;45.926;13.608;2023-05-20T06:43:15;14.70;;;10.40;;
52188;SDS011;38162;45.926;13.608;2023-05-20T06:45:41;16.80;;;11.02;;
52188;SDS011;38162;45.926;13.608;2023-05-20T06:48:08;13.35;;;11.13;;
52188;SDS011;38162;45.926;13.608;2023-05-20T06:50:34;14.15;;;11.70;;
52188;SDS011;38162;45.926;13.608;2023-05-20T06:53:00;15.15;;;12.30;;
52188;SDS011;38162;45.926;13.608;2023-05-20T06:55:26;14.60;;;11.10;;
52188;SDS011;38162;45.926;13.608;2023-05-20T06:57:52;13.73;;;12.05;;
52188;SDS011;38162;45.926;13.608;2023-05-20T07:00:17;14.50;;;12.35;;
52188;SDS011;38162;45.926;13.608;2023-05-20T07:02:43;16.73;;;13.40;;
52188;SDS011;38162;45.926;13.608;2023-05-20T07:05:10;12.52;;;11.32;;
52188;SDS011;38162;45.926;13.608;2023-05-20T07:07:36;14.30;;;11.68;;
52188;SDS011;38162;45.926;13.608;2023-05-20T07:10:02;12.90;;;11.48;;
52188;SDS011;38162;45.926;13.608;2023-05-20T07:12:30;12.38;;;11.05;;
52188;SDS011;38162;45.926;13.608;2023-05-20T07:14:56;12.82;;;11.20;;
52188;SDS011;38162;45.926;13.608;2023-05-20T07:17:22;15.60;;;10.15;;
52188;SDS011;38162;45.926;13.608;2023-05-20T07:19:49;15.48;;;10.80;;
52188;SDS011;38162;45.926;13.608;2023-05-20T07:22:15;11.05;;;9.85;;
52188;SDS011;38162;45.926;13.608;2023-05-20T07:24:40;13.90;;;10.90;;
52188;SDS011;38162;45.926;13.608;2023-05-20T07:27:06;14.07;;;11.57;;
52188;SDS011;38162;45.926;13.608;2023-05-20T07:29:33;13.90;;;10.52;;
52188;SDS011;38162;45.926;13.608;2023-05-20T07:32:02;18.83;;;12.27;;
52188;SDS011;38162;45.926;13.608;2023-05-20T07:34:29;17.10;;;12.07;;
52188;SDS011;38162;45.926;13.608;2023-05-20T07:36:55;13.32;;;11.93;;
52188;SDS011;38162;45.926;13.608;2023-05-20T07:39:22;13.73;;;11.85;;
52188;SDS011;38162;45.926;13.608;2023-05-20T07:41:48;14.82;;;11.38;;
52188;SDS011;38162;45.926;13.608;2023-05-20T07:44:14;15.85;;;9.57;;
52188;SDS011;38162;45.926;13.608;2023-05-20T07:46:43;9.88;;;7.65;;
52188;SDS011;38162;45.926;13.608;2023-05-20T07:49:09;13.27;;;8.00;;
52188;SDS011;38162;45.926;13.608;2023-05-20T07:58:27;13.63;;;6.85;;
52188;SDS011;38162;45.926;13.608;2023-05-20T08:00:59;12.18;;;6.90;;
52188;SDS011;38162;45.926;13.608;2023-05-20T08:03:28;9.77;;;7.07;;
52188;SDS011;38162;45.926;13.608;2023-05-20T08:06:16;8.38;;;7.35;;
52188;SDS011;38162;45.926;13.608;2023-05-20T08:12:17;9.38;;;6.97;;
52188;SDS011;38162;45.926;13.608;2023-05-20T08:14:54;13.68;;;7.50;;
52188;SDS011;38162;45.926;13.608;2023-05-20T08:17:23;10.07;;;7.20;;
52188;SDS011;38162;45.926;13.608;2023-05-20T08:20:10;12.48;;;7.72;;
52188;SDS011;38162;45.926;13.608;2023-05-20T08:22:37;9.60;;;7.97;;
52188;SDS011;38162;45.926;13.608;2023-05-20T08:25:03;9.38;;;7.38;;
52188;SDS011;38162;45.926;13.608;2023-05-20T08:27:32;8.52;;;7.60;;
52188;SDS011;38162;45.926;13.608;2023-05-20T08:29:57;12.77;;;7.60;;
52188;SDS011;38162;45.926;13.608;2023-05-20T08:32:23;13.30;;;7.38;;
52188;SDS011;38162;45.926;13.608;2023-05-20T08:34:50;8.38;;;7.13;;
52188;SDS011;38162;45.926;13.608;2023-05-20T08:37:16;13.20;;;7.22;;
52188;SDS011;38162;45.926;13.608;2023-05-20T08:39:41;14.63;;;6.90;;
52188;SDS011;38162;45.926;13.608;2023-05-20T08:42:10;9.32;;;6.82;;
52188;SDS011;38162;45.926;13.608;2023-05-20T08:44:37;13.05;;;6.60;;
52188;SDS011;38162;45.926;13.608;2023-05-20T08:47:05;7.20;;;6.32;;
52188;SDS011;38162;45.926;13.608;2023-05-20T08:49:33;9.80;;;6.43;;
52188;SDS011;38162;45.926;13.608;2023-05-20T08:51:59;11.60;;;6.35;;
52188;SDS011;38162;45.926;13.608;2023-05-20T08:54:26;9.38;;;6.47;;
52188;SDS011;38162;45.926;13.608;2023-05-20T08:57:08;7.47;;;6.15;;
52188;SDS011;38162;45.926;13.608;2023-05-20T08:59:38;7.43;;;6.20;;
52188;SDS011;38162;45.926;13.608;2023-05-20T09:02:10;7.38;;;6.03;;
52188;SDS011;38162;45.926;13.608;2023-05-20T09:04:37;9.40;;;6.25;;
52188;SDS011;38162;45.926;13.608;2023-05-20T09:07:03;9.90;;;6.38;;
52188;SDS011;38162;45.926;13.608;2023-05-20T09:09:29;9.77;;;6.28;;
52188;SDS011;38162;45.926;13.608;2023-05-20T09:11:58;9.98;;;6.38;;
52188;SDS011;38162;45.926;13.608;2023-05-20T09:14:24;7.68;;;5.68;;
52188;SDS011;38162;45.926;13.608;2023-05-20T09:16:52;8.00;;;6.22;;
52188;SDS011;38162;45.926;13.608;2023-05-20T09:19:21;8.52;;;6.00;;
52188;SDS011;38162;45.926;13.608;2023-05-20T09:21:48;10.98;;;5.85;;
52188;SDS011;38162;45.926;13.608;2023-05-20T09:24:18;10.32;;;7.03;;
52188;SDS011;38162;45.926;13.608;2023-05-20T09:26:46;13.00;;;6.27;;
52188;SDS011;38162;45.926;13.608;2023-05-20T09:29:12;10.02;;;5.78;;
52188;SDS011;38162;45.926;13.608;2023-05-20T09:31:38;9.02;;;5.95;;
52188;SDS011;38162;45.926;13.608;2023-05-20T09:34:05;8.98;;;6.05;;
52188;SDS011;38162;45.926;13.608;2023-05-20T09:36:32;12.25;;;6.68;;
52188;SDS011;38162;45.926;13.608;2023-05-20T09:39:00;10.52;;;5.82;;
52188;SDS011;38162;45.926;13.608;2023-05-20T09:41:34;11.93;;;5.80;;
52188;SDS011;38162;45.926;13.608;2023-05-20T09:44:40;10.68;;;5.43;;
52188;SDS011;38162;45.926;13.608;2023-05-20T09:47:44;7.60;;;5.43;;
52188;SDS011;38162;45.926;13.608;2023-05-20T09:50:16;10.13;;;5.30;;
52188;SDS011;38162;45.926;13.608;2023-05-20T09:52:46;11.48;;;5.43;;
52188;SDS011;38162;45.926;13.608;2023-05-20T09:55:14;7.97;;;6.00;;
52188;SDS011;38162;45.926;13.608;2023-05-20T09:57:41;10.52;;;5.70;;
52188;SDS011;38162;45.926;13.608;2023-05-20T10:00:14;7.95;;;6.15;;
52188;SDS011;38162;45.926;13.608;2023-05-20T10:02:59;13.30;;;5.47;;
52188;SDS011;38162;45.926;13.608;2023-05-20T10:05:26;8.57;;;5.63;;
52188;SDS011;38162;45.926;13.608;2023-05-20T10:15:59;14.45;;;6.65;;
52188;SDS011;38162;45.926;13.608;2023-05-20T10:21:22;11.13;;;6.30;;
52188;SDS011;38162;45.926;13.608;2023-05-20T10:23:49;10.15;;;6.10;;
52188;SDS011;38162;45.926;13.608;2023-05-20T10:26:15;8.25;;;6.03;;
52188;SDS011;38162;45.926;13.608;2023-05-20T10:28:41;7.38;;;5.80;;
52188;SDS011;38162;45.926;13.608;2023-05-20T10:31:19;12.27;;;6.13;;
52188;SDS011;38162;45.926;13.608;2023-05-20T10:33:46;10.15;;;6.00;;
52188;SDS011;38162;45.926;13.608;2023-05-20T10:36:25;11.00;;;6.15;;
52188;SDS011;38162;45.926;13.608;2023-05-20T10:38:52;7.18;;;5.60;;
52188;SDS011;38162;45.926;13.608;2023-05-20T10:41:20;9.65;;;6.10;;
52188;SDS011;38162;45.926;13.608;2023-05-20T10:43:57;10.32;;;5.90;;
52188;SDS011;38162;45.926;13.608;2023-05-20T10:46:27;8.80;;;5.22;;
52188;SDS011;38162;45.926;13.608;2023-05-20T10:48:54;9.55;;;6.00;;
52188;SDS011;38162;45.926;13.608;2023-05-20T10:51:20;9.27;;;5.65;;
52188;SDS011;38162;45.926;13.608;2023-05-20T10:53:46;10.00;;;5.95;;
52188;SDS011;38162;45.926;13.608;2023-05-20T10:56:15;6.78;;;5.70;;
52188;SDS011;38162;45.926;13.608;2023-05-20T10:58:48;9.57;;;5.88;;
52188;SDS011;38162;45.926;13.608;2023-05-20T11:01:15;8.43;;;5.90;;
52188;SDS011;38162;45.926;13.608;2023-05-20T11:03:43;9.20;;;5.75;;
52188;SDS011;38162;45.926;13.608;2023-05-20T11:06:13;7.40;;;5.22;;
52188;SDS011;38162;45.926;13.608;2023-05-20T11:08:40;6.50;;;5.45;;
52188;SDS011;38162;45.926;13.608;2023-05-20T11:11:06;6.55;;;5.93;;
52188;SDS011;38162;45.926;13.608;2023-05-20T11:13:34;13.63;;;5.75;;
52188;SDS011;38162;45.926;13.608;2023-05-20T11:16:00;9.48;;;5.80;;
52188;SDS011;38162;45.926;13.608;2023-05-20T11:21:19;8.45;;;5.68;;
52188;SDS011;38162;45.926;13.608;2023-05-20T11:23:45;9.75;;;6.43;;
52188;SDS011;38162;45.926;13.608;2023-05-20T11:26:43;9.18;;;6.05;;
52188;SDS011;38162;45.926;13.608;2023-05-20T11:29:29;9.18;;;6.13;;
52188;SDS011;38162;45.926;13.608;2023-05-20T11:32:18;6.53;;;5.82;;
52188;SDS011;38162;45.926;13.608;2023-05-20T11:42:09;11.90;;;5.93;;
52188;SDS011;38162;45.926;13.608;2023-05-20T11:47:35;6.57;;;5.40;;
52188;SDS011;38162;45.926;13.608;2023-05-20T11:53:14;9.63;;;6.07;;
52188;SDS011;38162;45.926;13.608;2023-05-20T11:55:45;9.52;;;5.88;;
52188;SDS011;38162;45.926;13.608;2023-05-20T11:58:22;8.02;;;5.60;;
52188;SDS011;38162;45.926;13.608;2023-05-20T12:00:49;8.90;;;5.93;;
52188;SDS011;38162;45.926;13.608;2023-05-20T12:03:15;8.35;;;5.85;;
52188;SDS011;38162;45.926;13.608;2023-05-20T12:05:41;11.18;;;5.40;;
52188;SDS011;38162;45.926;13.608;2023-05-20T12:08:07;12.18;;;5.93;;
52188;SDS011;38162;45.926;13.608;2023-05-20T12:10:33;11.27;;;5.55;;
52188;SDS011;38162;45.926;13.608;2023-05-20T12:13:01;7.97;;;5.13;;
52188;SDS011;38162;45.926;13.608;2023-05-20T12:15:28;11.15;;;6.47;;
52188;SDS011;38162;45.926;13.608;2023-05-20T12:17:54;7.88;;;5.75;;
52188;SDS011;38162;45.926;13.608;2023-05-20T12:20:21;6.45;;;5.63;;
52188;SDS011;38162;45.926;13.608;2023-05-20T12:22:48;9.25;;;5.53;;
52188;SDS011;38162;45.926;13.608;2023-05-20T12:25:14;8.85;;;5.45;;
52188;SDS011;38162;45.926;13.608;2023-05-20T12:27:43;8.68;;;5.82;;
52188;SDS011;38162;45.926;13.608;2023-05-20T12:30:16;10.30;;;6.10;;
52188;SDS011;38162;45.926;13.608;2023-05-20T12:32:43;9.80;;;5.90;;
52188;SDS011;38162;45.926;13.608;2023-05-20T12:35:10;9.77;;;5.43;;
52188;SDS011;38162;45.926;13.608;2023-05-20T12:37:39;9.77;;;5.68;;
52188;SDS011;38162;45.926;13.608;2023-05-20T12:40:06;9.70;;;5.95;;
52188;SDS011;38162;45.926;13.608;2023-05-20T12:42:34;8.63;;;5.65;;
52188;SDS011;38162;45.926;13.608;2023-05-20T12:45:00;5.82;;;4.97;;
52188;SDS011;38162;45.926;13.608;2023-05-20T12:47:26;11.65;;;5.68;;
52188;SDS011;38162;45.926;13.608;2023-05-20T12:49:52;8.88;;;5.57;;
52188;SDS011;38162;45.926;13.608;2023-05-20T12:52:18;9.07;;;5.07;;
52188;SDS011;38162;45.926;13.608;2023-05-20T12:54:44;9.25;;;5.72;;
52188;SDS011;38162;45.926;13.608;2023-05-20T12:57:10;10.88;;;6.35;;
52188;SDS011;38162;45.926;13.608;2023-05-20T12:59:36;12.98;;;6.30;;
52188;SDS011;38162;45.926;13.608;2023-05-20T13:02:02;9.50;;;6.57;;
52188;SDS011;38162;45.926;13.608;2023-05-20T13:04:28;9.35;;;6.50;;
52188;SDS011;38162;45.926;13.608;2023-05-20T13:06:54;7.30;;;5.88;;
52188;SDS011;38162;45.926;13.608;2023-05-20T13:09:42;10.13;;;6.72;;
52188;SDS011;38162;45.926;13.608;2023-05-20T13:15:29;10.82;;;6.20;;
52188;SDS011;38162;45.926;13.608;2023-05-20T13:21:04;9.63;;;7.00;;
52188;SDS011;38162;45.926;13.608;2023-05-20T13:23:50;9.13;;;7.05;;
52188;SDS011;38162;45.926;13.608;2023-05-20T13:26:16;7.25;;;6.30;;
52188;SDS011;38162;45.926;13.608;2023-05-20T13:28:51;9.43;;;6.68;;
52188;SDS011;38162;45.926;13.608;2023-05-20T13:31:22;7.95;;;6.90;;
52188;SDS011;38162;45.926;13.608;2023-05-20T13:33:54;7.93;;;6.93;;
52188;SDS011;38162;45.926;13.608;2023-05-20T13:36:23;11.80;;;6.82;;
52188;SDS011;38162;45.926;13.608;2023-05-20T13:38:49;12.25;;;6.93;;
52188;SDS011;38162;45.926;13.608;2023-05-20T13:41:15;9.02;;;7.40;;
52188;SDS011;38162;45.926;13.608;2023-05-20T13:43:41;11.18;;;7.22;;
52188;SDS011;38162;45.926;13.608;2023-05-20T13:46:07;11.23;;;7.22;;
52188;SDS011;38162;45.926;13.608;2023-05-20T13:48:33;10.77;;;7.57;;
52188;SDS011;38162;45.926;13.608;2023-05-20T13:50:59;9.13;;;7.45;;
52188;SDS011;38162;45.926;13.608;2023-05-20T13:53:26;12.15;;;8.45;;
52188;SDS011;38162;45.926;13.608;2023-05-20T14:01:03;17.25;;;9.07;;
52188;SDS011;38162;45.926;13.608;2023-05-20T14:03:30;11.63;;;8.13;;
52188;SDS011;38162;45.926;13.608;2023-05-20T14:05:57;10.77;;;7.35;;
52188;SDS011;38162;45.926;13.608;2023-05-20T14:08:23;19.15;;;7.97;;
52188;SDS011;38162;45.926;13.608;2023-05-20T14:10:50;8.85;;;6.80;;
52188;SDS011;38162;45.926;13.608;2023-05-20T14:13:22;9.63;;;6.28;;
52188;SDS011;38162;45.926;13.608;2023-05-20T14:15:49;8.80;;;6.80;;
52188;SDS011;38162;45.926;13.608;2023-05-20T14:18:18;11.18;;;6.85;;
52188;SDS011;38162;45.926;13.608;2023-05-20T14:20:44;10.85;;;7.07;;
52188;SDS011;38162;45.926;13.608;2023-05-20T14:23:10;11.07;;;6.80;;
52188;SDS011;38162;45.926;13.608;2023-05-20T14:25:36;13.68;;;7.35;;
52188;SDS011;38162;45.926;13.608;2023-05-20T14:28:02;14.00;;;7.22;;
52188;SDS011;38162;45.926;13.608;2023-05-20T14:30:28;8.38;;;7.40;;
52188;SDS011;38162;45.926;13.608;2023-05-20T14:32:54;10.48;;;6.60;;
52188;SDS011;38162;45.926;13.608;2023-05-20T14:35:20;12.60;;;7.80;;
52188;SDS011;38162;45.926;13.608;2023-05-20T14:37:46;13.18;;;7.22;;
52188;SDS011;38162;45.926;13.608;2023-05-20T14:40:12;11.10;;;6.78;;
52188;SDS011;38162;45.926;13.608;2023-05-20T14:42:38;12.40;;;6.68;;
52188;SDS011;38162;45.926;13.608;2023-05-20T14:45:04;15.50;;;7.10;;
52188;SDS011;38162;45.926;13.608;2023-05-20T14:47:31;8.85;;;6.32;;
52188;SDS011;38162;45.926;13.608;2023-05-20T14:50:00;11.00;;;6.75;;
52188;SDS011;38162;45.926;13.608;2023-05-20T14:52:29;7.80;;;7.00;;
52188;SDS011;38162;45.926;13.608;2023-05-20T14:58:31;12.50;;;6.13;;
52188;SDS011;38162;45.926;13.608;2023-05-20T15:01:26;10.75;;;6.43;;
52188;SDS011;38162;45.926;13.608;2023-05-20T15:07:59;9.05;;;6.88;;
52188;SDS011;38162;45.926;13.608;2023-05-20T15:10:37;8.02;;;6.60;;
52188;SDS011;38162;45.926;13.608;2023-05-20T15:15:55;9.40;;;6.68;;
52188;SDS011;38162;45.926;13.608;2023-05-20T15:18:31;11.57;;;6.50;;
52188;SDS011;38162;45.926;13.608;2023-05-20T15:20:57;7.18;;;6.43;;
52188;SDS011;38162;45.926;13.608;2023-05-20T15:23:26;9.32;;;6.22;;
52188;SDS011;38162;45.926;13.608;2023-05-20T15:25:51;8.10;;;6.97;;
52188;SDS011;38162;45.926;13.608;2023-05-20T15:28:17;10.57;;;6.32;;
52188;SDS011;38162;45.926;13.608;2023-05-20T15:30:44;8.68;;;5.93;;